Flight Track Log - Related Links

Times and Time Zones

All times are in EDT time to prevent confusion due to time zone crossing. See the FIN666 flight status page for this flight to view local times or setup timezone preferences in your user account.


Time Position Orientation Groundspeed Altitude Reporting Facility
EDT Latitude Longitude Course Direction KTS MPH feet Rate Location/Type
Wed 08:16:00 AM 55.8966 13.2332 49° Northeast  Level Estimated
Wed 08:17:00 AM 55.9658 13.3788 50° Northeast  Level Estimated
Wed 08:18:00 AM 56.0349 13.5249 50° Northeast  Level Estimated
Wed 08:19:00 AM 56.1056 13.6756 50° Northeast  Level Estimated
Wed 08:20:00 AM 56.1762 13.8268 50° Northeast  Level Estimated
Wed 08:21:00 AM 56.2466 13.9786 50° Northeast  Level Estimated
Wed 08:22:00 AM 56.3169 14.1309 50° Northeast  Level Estimated
Wed 08:23:00 AM 56.3869 14.2838 50° Northeast  Level Estimated
Wed 08:24:00 AM 56.4567 14.4373 50° Northeast  Level Estimated
Wed 08:25:00 AM 56.5264 14.5913 51° Northeast  Level Estimated
Wed 08:26:00 AM 56.5959 14.7459 51° Northeast  Level Estimated
Wed 08:27:00 AM 56.6651 14.9011 51° Northeast  Level Estimated
Wed 08:28:00 AM 56.7342 15.0568 51° Northeast  Level Estimated
Wed 08:29:00 AM 56.8031 15.2131 51° Northeast  Level Estimated
Wed 08:30:00 AM 56.8718 15.3700 51° Northeast  Level Estimated
Wed 08:31:00 AM 56.9403 15.5274 51° Northeast  Level Estimated
Wed 08:32:00 AM 57.0085 15.6855 52° Northeast  Level Estimated
Wed 08:33:00 AM 57.0766 15.8441 52° Northeast  Level Estimated
Wed 08:34:00 AM 57.1445 16.0033 52° Northeast  Level Estimated
Wed 08:35:00 AM 57.2122 16.1631 52° Northeast  Level Estimated
Wed 08:36:00 AM 57.2797 16.3234 52° Northeast  Level Estimated
Wed 08:37:00 AM 57.3470 16.4844 52° Northeast  Level Estimated
Wed 08:38:00 AM 57.4140 16.6459 52° Northeast  Level Estimated
Wed 08:39:00 AM 57.4809 16.8081 52° Northeast  Level Estimated
Wed 08:40:00 AM 57.5458 16.9665 53° Northeast  Level Estimated
Wed 08:41:00 AM 57.6105 17.1254 53° Northeast  Level Estimated
Wed 08:42:00 AM 57.6749 17.2849 53° Northeast  Level Estimated
Wed 08:43:00 AM 57.7392 17.4450 53° Northeast  Level Estimated
Wed 08:44:00 AM 57.8033 17.6057 53° Northeast  Level Estimated
Wed 08:45:00 AM 57.8672 17.7669 53° Northeast  Level Estimated
Wed 08:46:00 AM 57.9308 17.9287 53° Northeast  Level Estimated
Wed 08:47:00 AM 57.9943 18.0910 54° Northeast  Level Estimated
Wed 08:48:00 AM 58.0576 18.2540 54° Northeast  Level Estimated
Wed 08:49:00 AM 58.1206 18.4175 54° Northeast  Level Estimated
Wed 08:50:00 AM 58.1834 18.5816 54° Northeast  Level Estimated
Wed 08:51:00 AM 58.2461 18.7463 54° Northeast  Level Estimated
Wed 08:52:00 AM 58.3085 18.9116 54° Northeast  Level Estimated
Wed 08:53:00 AM 58.3707 19.0774 54° Northeast  Level Estimated
Wed 08:54:00 AM 58.4327 19.2438 55° Northeast  Level Estimated
Wed 08:55:00 AM 58.4944 19.4108 55° Northeast  Level Estimated
Wed 08:56:00 AM 58.5560 19.5784 55° Northeast  Level Estimated
Wed 08:57:00 AM 58.6173 19.7466 55° Northeast  Level Estimated
Wed 08:58:00 AM 58.6784 19.9154 55° Northeast  Level Estimated
Wed 08:59:00 AM 58.7393 20.0848 55° Northeast  Level Estimated
Wed 09:00:00 AM 58.8000 20.2547 55° Northeast  Level Estimated
Wed 09:01:00 AM 58.8604 20.4253 56° Northeast  Level Estimated
Wed 09:02:00 AM 58.9206 20.5965 56° Northeast  Level Estimated
Wed 09:03:00 AM 58.9806 20.7682 56° Northeast  Level Estimated
Wed 09:04:00 AM 59.0404 20.9406 56° Northeast  Level Estimated
Wed 09:05:00 AM 59.0999 21.1135 56° Northeast  Level Estimated
Wed 09:06:00 AM 59.1592 21.2871 56° Northeast  Level Estimated
Wed 09:07:00 AM 59.2183 21.4612 56° Northeast  Level Estimated
Wed 09:08:00 AM 59.2779 21.6383 57° Northeast  Level Estimated
Wed 09:09:00 AM 59.3373 21.8161 57° Northeast  Level Estimated
Wed 09:10:00 AM 59.3964 21.9944 57° Northeast  Level Estimated
Wed 09:11:00 AM 59.4553 22.1734 57° Northeast  Level Estimated
Wed 09:12:00 AM 59.5140 22.3530 57° Northeast  Level Estimated
Wed 09:13:00 AM 59.5724 22.5333 57° Northeast  Level Estimated
Wed 09:14:00 AM 59.6306 22.7141 57° Northeast  Level Estimated
Wed 09:15:00 AM 59.6885 22.8956 58° Northeast  Level Estimated
Wed 09:16:00 AM 59.7461 23.0777 58° Northeast  Level Estimated
Wed 09:17:00 AM 59.8035 23.2605 58° Northeast  Level Estimated
Wed 09:18:00 AM 59.8607 23.4438 58° Northeast  Level Estimated
Wed 09:19:00 AM 59.9176 23.6278 58° Northeast  Level Estimated
Wed 09:20:00 AM 59.9742 23.8125 58° Northeast  Level Estimated
Wed 09:21:00 AM 60.0306 23.9977 59° Northeast  Level Estimated
Wed 09:22:00 AM 60.0867 24.1836 59° Northeast  Level Estimated
Wed 09:23:00 AM 60.1426 24.3701 59° Northeast  Level Estimated
Wed 09:24:00 AM 60.1982 24.5573 59° Northeast  Level Estimated
Wed 09:25:00 AM 60.2535 24.7451 59° Northeast  Level Estimated
Wed 09:26:00 AM 60.3086 24.9335 59° Northeast  Level Estimated
Wed 09:27:00 AM 60.3172 24.9633 60° Northeast  Level Estimated
Wed 09:28:00 AM 60.3172 24.9633 North  Level Estimated
Wed 09:29:00 AM 60.3172 24.9633 North  Level Estimated
Wed 09:30:00 AM 60.3172 24.9633 North  Level Estimated
Wed 09:31:00 AM 60.3172 24.9633 North  Level Estimated
Wed 09:32:00 AM 60.3172 24.9633 North  Level Estimated
Wed 09:33:00 AM 60.3172 24.9633 North  Level Estimated
Wed 09:34:00 AM 60.3172 24.9633 North  Level Estimated
Wed 09:35:00 AM 60.3172 24.9633 North  Level Estimated

Login

Don't have an account? Register now (free) for customized features, flight alerts, and more!